createdAt,value
2022-11-18T00:00:42.223Z,6
2022-11-18T00:50:45.961Z,6.6
2022-11-18T01:00:46.285Z,6.6
2022-11-18T01:10:47.358Z,6.7
2022-11-18T01:20:47.515Z,6.9
2022-11-18T01:30:47.683Z,7
2022-11-18T01:40:48.368Z,7
2022-11-18T02:00:49.442Z,6.8
2022-11-18T02:10:50.362Z,6.9
2022-11-18T02:20:51.424Z,6.8
2022-11-18T02:30:52.519Z,6.7
2022-11-18T02:40:52.681Z,6.8
2022-11-18T02:50:52.928Z,6.8
2022-11-18T03:00:53.872Z,6.7
2022-11-18T03:10:54.251Z,6.6
2022-11-18T03:20:55.340Z,6.6
2022-11-18T03:30:55.864Z,6.6
2022-11-18T03:40:56.402Z,6.7
2022-11-18T03:50:56.863Z,6.7
2022-11-18T04:00:57.138Z,6.9
2022-11-18T04:10:58.055Z,6.9
2022-11-18T04:20:58.175Z,6.9
2022-11-18T04:30:58.518Z,7.1
2022-11-18T04:40:59.401Z,7.2
2022-11-18T04:50:59.745Z,7.3
2022-11-18T05:01:00.501Z,7.3
2022-11-18T05:11:01.274Z,7.3
2022-11-18T05:21:01.547Z,7.2
2022-11-18T05:31:02.150Z,7.1
2022-11-18T05:51:03.479Z,7.3
2022-11-18T06:01:03.976Z,7.5
2022-11-18T06:11:04.281Z,7.5
2022-11-18T06:21:04.862Z,7.5
2022-11-18T06:31:05.840Z,7.5
2022-11-18T06:41:06.908Z,7.6
2022-11-18T06:51:07.638Z,7.6
2022-11-18T07:01:08.427Z,7.7
2022-11-18T07:11:08.847Z,7.7
2022-11-18T07:21:09.910Z,7.7
2022-11-18T07:31:10.697Z,7.8
2022-11-18T07:41:11.114Z,7.8
2022-11-18T07:51:12.059Z,8
2022-11-18T08:01:12.623Z,8.1
2022-11-18T08:11:15.160Z,8.3
2022-11-18T08:21:13.824Z,8.4
2022-11-18T08:31:14.745Z,8.6
2022-11-18T08:41:14.992Z,8.6
2022-11-18T08:51:16.046Z,8.7
2022-11-18T09:01:17.226Z,8.8
2022-11-18T09:11:18.165Z,8.9
2022-11-18T09:31:18.456Z,9.2
2022-11-18T09:41:19.498Z,9.3
2022-11-18T09:51:19.792Z,9.3
2022-11-18T10:01:20.622Z,9.2
2022-11-18T10:11:21.392Z,9.1
2022-11-18T10:31:22.345Z,9.8
2022-11-18T10:41:22.444Z,10.1
2022-11-18T10:51:22.623Z,10.4
2022-11-18T11:01:28.537Z,10.2
2022-11-18T11:11:29.053Z,10.1
2022-11-18T11:21:29.329Z,10.4
2022-11-18T11:31:29.612Z,10.8
2022-11-18T11:41:29.916Z,10.7
2022-11-18T11:51:30.657Z,10.9
2022-11-18T12:01:31.530Z,11
2022-11-18T12:11:32.034Z,10.7
2022-11-18T12:21:35.004Z,10.5
2022-11-18T12:41:33.827Z,10.9
2022-11-18T12:51:34.401Z,10.9
2022-11-18T13:01:35.144Z,11.3
2022-11-18T13:11:35.932Z,11.3
2022-11-18T13:21:36.752Z,11.4
2022-11-18T13:31:36.947Z,11.2
2022-11-18T13:41:37.627Z,11.2
2022-11-18T13:51:38.192Z,11.2
2022-11-18T14:01:38.976Z,11.1
2022-11-18T14:11:39.992Z,11.1
2022-11-18T14:21:40.619Z,11
2022-11-18T14:31:40.938Z,10.8
2022-11-18T14:41:44.629Z,10.2
2022-11-18T14:51:41.801Z,9.8
2022-11-18T15:11:43.395Z,9.4
2022-11-18T15:41:45.387Z,9
2022-11-18T15:51:45.598Z,8.8
2022-11-18T16:01:45.953Z,8.4
2022-11-18T16:11:46.768Z,8.1
2022-11-18T16:21:47.479Z,7.7
2022-11-18T16:31:47.736Z,7.4
2022-11-18T16:41:48.770Z,7.2
2022-11-18T16:51:49.604Z,6.8
2022-11-18T17:01:50.757Z,6.7
2022-11-18T17:21:51.885Z,6.5
2022-11-18T17:31:51.997Z,6.5
2022-11-18T17:41:52.108Z,6.2
2022-11-18T17:51:53.097Z,6
2022-11-18T18:01:58.791Z,5.9
2022-11-18T18:11:54.289Z,5.7
2022-11-18T18:21:54.923Z,5.7
2022-11-18T18:31:55.721Z,5.5
2022-11-18T18:41:56.541Z,5.4
2022-11-18T18:51:56.768Z,5.3
2022-11-18T19:01:57.350Z,5.1
2022-11-18T19:11:58.199Z,5
2022-11-18T19:21:59.126Z,4.9
2022-11-18T19:31:59.906Z,4.8
2022-11-18T19:42:00.166Z,4.7
2022-11-18T19:52:00.701Z,4.7
2022-11-18T20:02:01.285Z,4.5
2022-11-18T20:12:02.310Z,4.3
2022-11-18T20:22:03.229Z,4.1
2022-11-18T20:32:03.673Z,3.9
2022-11-18T20:42:04.411Z,3.8
2022-11-18T20:52:04.782Z,3.7
2022-11-18T21:02:04.895Z,3.5
2022-11-18T21:12:05.591Z,3.5
2022-11-18T21:22:06.252Z,3.4
2022-11-18T21:32:06.747Z,3.4
2022-11-18T21:42:07.146Z,3.4
2022-11-18T21:52:07.834Z,3.3
2022-11-18T22:02:08.897Z,3.3
2022-11-18T22:22:10.784Z,3.2
2022-11-18T22:32:11.614Z,3.2
2022-11-18T22:42:11.874Z,3.1
2022-11-18T22:52:12.441Z,3
2022-11-18T23:02:13.303Z,2.9
2022-11-18T23:12:13.640Z,2.9
2022-11-18T23:32:15.140Z,2.8
2022-11-18T23:52:16.035Z,2.8
